sensor_id;sensor_type;location;lat;lon;timestamp;P1;durP1;ratioP1;P2;durP2;ratioP2
4208;SDS011;36320;48.860;2.380;2023-02-17T00:01:00;8.48;;;2.13;;
4208;SDS011;36320;48.860;2.380;2023-02-17T00:03:29;9.70;;;2.40;;
4208;SDS011;36320;48.860;2.380;2023-02-17T00:05:55;12.88;;;2.83;;
4208;SDS011;36320;48.860;2.380;2023-02-17T00:08:21;10.10;;;2.60;;
4208;SDS011;36320;48.860;2.380;2023-02-17T00:10:55;7.97;;;2.30;;
4208;SDS011;36320;48.860;2.380;2023-02-17T00:13:21;9.20;;;2.47;;
4208;SDS011;36320;48.860;2.380;2023-02-17T00:15:48;8.68;;;2.15;;
4208;SDS011;36320;48.860;2.380;2023-02-17T00:18:14;10.50;;;2.60;;
4208;SDS011;36320;48.860;2.380;2023-02-17T00:20:40;10.40;;;2.60;;
4208;SDS011;36320;48.860;2.380;2023-02-17T00:23:06;13.93;;;2.80;;
4208;SDS011;36320;48.860;2.380;2023-02-17T00:25:32;10.32;;;3.03;;
4208;SDS011;36320;48.860;2.380;2023-02-17T00:27:58;7.47;;;2.10;;
4208;SDS011;36320;48.860;2.380;2023-02-17T00:30:24;8.50;;;2.47;;
4208;SDS011;36320;48.860;2.380;2023-02-17T00:32:50;10.43;;;2.70;;
4208;SDS011;36320;48.860;2.380;2023-02-17T00:35:19;9.27;;;2.25;;
4208;SDS011;36320;48.860;2.380;2023-02-17T00:37:45;8.95;;;2.40;;
4208;SDS011;36320;48.860;2.380;2023-02-17T00:40:12;8.20;;;2.30;;
4208;SDS011;36320;48.860;2.380;2023-02-17T00:42:38;7.60;;;2.20;;
4208;SDS011;36320;48.860;2.380;2023-02-17T00:45:04;9.13;;;2.30;;
4208;SDS011;36320;48.860;2.380;2023-02-17T00:47:32;7.95;;;2.42;;
4208;SDS011;36320;48.860;2.380;2023-02-17T00:49:58;8.63;;;2.00;;
4208;SDS011;36320;48.860;2.380;2023-02-17T00:52:24;12.20;;;2.53;;
4208;SDS011;36320;48.860;2.380;2023-02-17T00:54:50;8.80;;;2.40;;
4208;SDS011;36320;48.860;2.380;2023-02-17T00:57:16;12.23;;;2.28;;
4208;SDS011;36320;48.860;2.380;2023-02-17T00:59:42;10.07;;;2.75;;
4208;SDS011;36320;48.860;2.380;2023-02-17T01:02:08;10.57;;;2.30;;
4208;SDS011;36320;48.860;2.380;2023-02-17T01:04:34;9.18;;;2.60;;
4208;SDS011;36320;48.860;2.380;2023-02-17T01:07:01;9.52;;;2.50;;
4208;SDS011;36320;48.860;2.380;2023-02-17T01:09:28;8.37;;;2.40;;
4208;SDS011;36320;48.860;2.380;2023-02-17T01:11:54;8.60;;;2.30;;
4208;SDS011;36320;48.860;2.380;2023-02-17T01:14:20;14.60;;;2.20;;
4208;SDS011;36320;48.860;2.380;2023-02-17T01:16:47;10.10;;;3.00;;
4208;SDS011;36320;48.860;2.380;2023-02-17T01:19:15;8.43;;;2.13;;
4208;SDS011;36320;48.860;2.380;2023-02-17T01:21:44;8.33;;;2.30;;
4208;SDS011;36320;48.860;2.380;2023-02-17T01:24:11;8.97;;;2.37;;
4208;SDS011;36320;48.860;2.380;2023-02-17T01:26:37;8.52;;;2.10;;
4208;SDS011;36320;48.860;2.380;2023-02-17T01:29:04;9.07;;;2.47;;
4208;SDS011;36320;48.860;2.380;2023-02-17T01:31:30;8.30;;;2.20;;
4208;SDS011;36320;48.860;2.380;2023-02-17T01:33:57;7.32;;;2.08;;
4208;SDS011;36320;48.860;2.380;2023-02-17T01:36:25;9.88;;;2.92;;
4208;SDS011;36320;48.860;2.380;2023-02-17T01:38:53;10.10;;;2.50;;
4208;SDS011;36320;48.860;2.380;2023-02-17T01:41:20;7.63;;;2.00;;
4208;SDS011;36320;48.860;2.380;2023-02-17T01:44:07;9.02;;;2.30;;
4208;SDS011;36320;48.860;2.380;2023-02-17T01:46:33;8.05;;;2.50;;
4208;SDS011;36320;48.860;2.380;2023-02-17T01:49:00;9.05;;;2.50;;
4208;SDS011;36320;48.860;2.380;2023-02-17T01:51:27;8.18;;;2.20;;
4208;SDS011;36320;48.860;2.380;2023-02-17T01:54:00;14.30;;;2.80;;
4208;SDS011;36320;48.860;2.380;2023-02-17T01:56:27;8.77;;;2.60;;
4208;SDS011;36320;48.860;2.380;2023-02-17T01:59:06;8.03;;;2.40;;
4208;SDS011;36320;48.860;2.380;2023-02-17T02:01:33;10.60;;;3.17;;
4208;SDS011;36320;48.860;2.380;2023-02-17T02:04:00;8.48;;;2.40;;
4208;SDS011;36320;48.860;2.380;2023-02-17T02:06:27;10.55;;;2.40;;
4208;SDS011;36320;48.860;2.380;2023-02-17T02:09:05;8.90;;;2.38;;
4208;SDS011;36320;48.860;2.380;2023-02-17T02:11:32;8.15;;;2.20;;
4208;SDS011;36320;48.860;2.380;2023-02-17T02:13:58;10.75;;;2.40;;
4208;SDS011;36320;48.860;2.380;2023-02-17T02:16:41;10.48;;;2.72;;
4208;SDS011;36320;48.860;2.380;2023-02-17T02:24:34;9.80;;;2.37;;
4208;SDS011;36320;48.860;2.380;2023-02-17T02:37:49;9.63;;;2.90;;
4208;SDS011;36320;48.860;2.380;2023-02-17T02:40:18;9.13;;;2.38;;
4208;SDS011;36320;48.860;2.380;2023-02-17T02:42:45;8.10;;;2.40;;
4208;SDS011;36320;48.860;2.380;2023-02-17T02:45:15;8.88;;;2.70;;
4208;SDS011;36320;48.860;2.380;2023-02-17T02:47:45;9.83;;;2.70;;
4208;SDS011;36320;48.860;2.380;2023-02-17T02:50:16;9.40;;;2.50;;
4208;SDS011;36320;48.860;2.380;2023-02-17T03:05:59;8.52;;;2.78;;
4208;SDS011;36320;48.860;2.380;2023-02-17T03:10:54;8.40;;;2.50;;
4208;SDS011;36320;48.860;2.380;2023-02-17T03:13:20;12.30;;;2.78;;
4208;SDS011;36320;48.860;2.380;2023-02-17T03:15:46;8.30;;;2.60;;
4208;SDS011;36320;48.860;2.380;2023-02-17T03:18:12;9.85;;;2.40;;
4208;SDS011;36320;48.860;2.380;2023-02-17T03:20:41;7.97;;;2.42;;
4208;SDS011;36320;48.860;2.380;2023-02-17T03:23:08;8.23;;;2.20;;
4208;SDS011;36320;48.860;2.380;2023-02-17T03:25:34;8.60;;;2.30;;
4208;SDS011;36320;48.860;2.380;2023-02-17T03:28:00;8.85;;;2.60;;
4208;SDS011;36320;48.860;2.380;2023-02-17T03:30:27;10.25;;;2.33;;
4208;SDS011;36320;48.860;2.380;2023-02-17T03:32:55;7.50;;;2.20;;
4208;SDS011;36320;48.860;2.380;2023-02-17T03:35:22;7.75;;;2.20;;
4208;SDS011;36320;48.860;2.380;2023-02-17T03:37:48;9.90;;;2.25;;
4208;SDS011;36320;48.860;2.380;2023-02-17T03:40:14;9.43;;;2.50;;
4208;SDS011;36320;48.860;2.380;2023-02-17T03:42:40;8.07;;;2.40;;
4208;SDS011;36320;48.860;2.380;2023-02-17T03:45:06;9.38;;;2.40;;
4208;SDS011;36320;48.860;2.380;2023-02-17T03:47:32;10.07;;;2.58;;
4208;SDS011;36320;48.860;2.380;2023-02-17T03:49:58;9.57;;;2.60;;
4208;SDS011;36320;48.860;2.380;2023-02-17T03:52:24;8.20;;;2.20;;
4208;SDS011;36320;48.860;2.380;2023-02-17T03:54:50;8.70;;;2.45;;
4208;SDS011;36320;48.860;2.380;2023-02-17T03:57:17;7.75;;;2.05;;
4208;SDS011;36320;48.860;2.380;2023-02-17T03:59:43;8.05;;;2.38;;
4208;SDS011;36320;48.860;2.380;2023-02-17T04:02:09;9.00;;;2.20;;
4208;SDS011;36320;48.860;2.380;2023-02-17T04:04:35;8.38;;;2.40;;
4208;SDS011;36320;48.860;2.380;2023-02-17T04:07:02;8.40;;;2.33;;
4208;SDS011;36320;48.860;2.380;2023-02-17T04:09:30;7.10;;;1.80;;
4208;SDS011;36320;48.860;2.380;2023-02-17T04:11:56;8.05;;;2.03;;
4208;SDS011;36320;48.860;2.380;2023-02-17T04:14:22;7.40;;;1.87;;
4208;SDS011;36320;48.860;2.380;2023-02-17T04:16:48;8.35;;;2.80;;
4208;SDS011;36320;48.860;2.380;2023-02-17T04:19:14;6.68;;;1.83;;
4208;SDS011;36320;48.860;2.380;2023-02-17T04:21:40;8.00;;;1.88;;
4208;SDS011;36320;48.860;2.380;2023-02-17T04:24:06;7.67;;;2.20;;
4208;SDS011;36320;48.860;2.380;2023-02-17T04:26:32;7.57;;;2.20;;
4208;SDS011;36320;48.860;2.380;2023-02-17T04:28:58;10.35;;;2.67;;
4208;SDS011;36320;48.860;2.380;2023-02-17T04:31:24;8.15;;;1.90;;
4208;SDS011;36320;48.860;2.380;2023-02-17T04:33:52;8.70;;;2.13;;
4208;SDS011;36320;48.860;2.380;2023-02-17T04:36:20;8.88;;;1.90;;
4208;SDS011;36320;48.860;2.380;2023-02-17T04:38:46;8.48;;;2.35;;
4208;SDS011;36320;48.860;2.380;2023-02-17T04:41:13;7.27;;;2.00;;
4208;SDS011;36320;48.860;2.380;2023-02-17T04:43:39;8.15;;;1.83;;
4208;SDS011;36320;48.860;2.380;2023-02-17T04:46:05;8.80;;;2.60;;
4208;SDS011;36320;48.860;2.380;2023-02-17T04:48:31;8.15;;;2.35;;
4208;SDS011;36320;48.860;2.380;2023-02-17T04:50:57;7.63;;;2.28;;
4208;SDS011;36320;48.860;2.380;2023-02-17T04:53:23;7.60;;;2.10;;
4208;SDS011;36320;48.860;2.380;2023-02-17T04:55:50;7.40;;;1.90;;
4208;SDS011;36320;48.860;2.380;2023-02-17T04:58:17;9.80;;;2.40;;
4208;SDS011;36320;48.860;2.380;2023-02-17T05:00:45;7.82;;;2.30;;
4208;SDS011;36320;48.860;2.380;2023-02-17T05:03:11;7.68;;;2.22;;
4208;SDS011;36320;48.860;2.380;2023-02-17T05:05:39;6.82;;;1.73;;
4208;SDS011;36320;48.860;2.380;2023-02-17T05:08:05;7.35;;;2.10;;
4208;SDS011;36320;48.860;2.380;2023-02-17T05:10:31;7.07;;;2.03;;
4208;SDS011;36320;48.860;2.380;2023-02-17T05:12:57;7.00;;;2.00;;
4208;SDS011;36320;48.860;2.380;2023-02-17T05:15:23;6.60;;;1.77;;
4208;SDS011;36320;48.860;2.380;2023-02-17T05:17:49;7.18;;;2.08;;
4208;SDS011;36320;48.860;2.380;2023-02-17T05:20:17;10.80;;;1.85;;
4208;SDS011;36320;48.860;2.380;2023-02-17T05:22:43;7.30;;;2.08;;
4208;SDS011;36320;48.860;2.380;2023-02-17T05:25:10;8.90;;;1.90;;
4208;SDS011;36320;48.860;2.380;2023-02-17T05:27:37;7.00;;;2.10;;
4208;SDS011;36320;48.860;2.380;2023-02-17T05:30:03;9.70;;;2.20;;
4208;SDS011;36320;48.860;2.380;2023-02-17T05:32:29;11.85;;;2.30;;
4208;SDS011;36320;48.860;2.380;2023-02-17T05:34:55;6.90;;;1.83;;
4208;SDS011;36320;48.860;2.380;2023-02-17T05:37:22;7.60;;;2.20;;
4208;SDS011;36320;48.860;2.380;2023-02-17T05:39:48;7.03;;;1.80;;
4208;SDS011;36320;48.860;2.380;2023-02-17T05:42:14;7.18;;;2.08;;
4208;SDS011;36320;48.860;2.380;2023-02-17T05:44:40;9.60;;;2.20;;
4208;SDS011;36320;48.860;2.380;2023-02-17T05:47:06;7.47;;;2.20;;
4208;SDS011;36320;48.860;2.380;2023-02-17T05:49:32;8.32;;;2.22;;
4208;SDS011;36320;48.860;2.380;2023-02-17T05:51:58;8.48;;;2.22;;
4208;SDS011;36320;48.860;2.380;2023-02-17T05:54:24;7.95;;;2.15;;
4208;SDS011;36320;48.860;2.380;2023-02-17T05:56:50;7.78;;;2.28;;
4208;SDS011;36320;48.860;2.380;2023-02-17T05:59:18;7.75;;;1.70;;
4208;SDS011;36320;48.860;2.380;2023-02-17T06:01:44;8.60;;;2.10;;
4208;SDS011;36320;48.860;2.380;2023-02-17T06:04:10;8.10;;;2.10;;
4208;SDS011;36320;48.860;2.380;2023-02-17T06:06:37;7.80;;;1.98;;
4208;SDS011;36320;48.860;2.380;2023-02-17T06:09:03;6.90;;;1.83;;
4208;SDS011;36320;48.860;2.380;2023-02-17T06:11:29;7.90;;;2.35;;
4208;SDS011;36320;48.860;2.380;2023-02-17T06:13:59;7.82;;;2.10;;
4208;SDS011;36320;48.860;2.380;2023-02-17T06:16:25;7.50;;;2.27;;
4208;SDS011;36320;48.860;2.380;2023-02-17T06:18:54;7.13;;;1.70;;
4208;SDS011;36320;48.860;2.380;2023-02-17T06:21:21;8.52;;;1.83;;
4208;SDS011;36320;48.860;2.380;2023-02-17T06:23:47;7.35;;;1.70;;
4208;SDS011;36320;48.860;2.380;2023-02-17T06:26:13;8.10;;;2.17;;
4208;SDS011;36320;48.860;2.380;2023-02-17T06:28:39;8.63;;;1.80;;
4208;SDS011;36320;48.860;2.380;2023-02-17T06:31:05;8.15;;;2.05;;
4208;SDS011;36320;48.860;2.380;2023-02-17T06:33:31;7.10;;;2.00;;
4208;SDS011;36320;48.860;2.380;2023-02-17T06:35:59;8.68;;;2.40;;
4208;SDS011;36320;48.860;2.380;2023-02-17T06:38:25;6.47;;;1.70;;
4208;SDS011;36320;48.860;2.380;2023-02-17T06:40:55;8.00;;;2.35;;
4208;SDS011;36320;48.860;2.380;2023-02-17T06:43:22;14.13;;;2.05;;
4208;SDS011;36320;48.860;2.380;2023-02-17T06:45:48;8.27;;;2.50;;
4208;SDS011;36320;48.860;2.380;2023-02-17T06:48:16;7.63;;;2.25;;
4208;SDS011;36320;48.860;2.380;2023-02-17T06:50:42;7.35;;;2.00;;
4208;SDS011;36320;48.860;2.380;2023-02-17T06:53:08;8.48;;;2.38;;
4208;SDS011;36320;48.860;2.380;2023-02-17T06:55:34;8.10;;;2.05;;
4208;SDS011;36320;48.860;2.380;2023-02-17T06:58:01;7.43;;;2.00;;
4208;SDS011;36320;48.860;2.380;2023-02-17T07:00:27;8.10;;;2.33;;
4208;SDS011;36320;48.860;2.380;2023-02-17T07:02:53;8.93;;;2.00;;
4208;SDS011;36320;48.860;2.380;2023-02-17T07:05:19;9.30;;;2.58;;
4208;SDS011;36320;48.860;2.380;2023-02-17T07:07:45;8.15;;;2.00;;
4208;SDS011;36320;48.860;2.380;2023-02-17T07:13:13;7.25;;;1.80;;
4208;SDS011;36320;48.860;2.380;2023-02-17T07:15:39;7.05;;;1.80;;
4208;SDS011;36320;48.860;2.380;2023-02-17T07:18:05;11.43;;;2.80;;
4208;SDS011;36320;48.860;2.380;2023-02-17T07:20:31;7.20;;;2.00;;
4208;SDS011;36320;48.860;2.380;2023-02-17T07:22:58;8.33;;;2.10;;
4208;SDS011;36320;48.860;2.380;2023-02-17T07:25:25;9.52;;;2.05;;
4208;SDS011;36320;48.860;2.380;2023-02-17T07:27:56;7.75;;;2.20;;
4208;SDS011;36320;48.860;2.380;2023-02-17T07:30:23;10.00;;;2.20;;
4208;SDS011;36320;48.860;2.380;2023-02-17T07:32:49;7.90;;;2.20;;
4208;SDS011;36320;48.860;2.380;2023-02-17T07:35:16;12.00;;;2.10;;
4208;SDS011;36320;48.860;2.380;2023-02-17T07:37:42;10.80;;;1.83;;
4208;SDS011;36320;48.860;2.380;2023-02-17T07:40:10;6.60;;;1.83;;
4208;SDS011;36320;48.860;2.380;2023-02-17T07:42:36;11.20;;;2.40;;
4208;SDS011;36320;48.860;2.380;2023-02-17T07:45:02;8.00;;;1.80;;
4208;SDS011;36320;48.860;2.380;2023-02-17T07:47:31;7.15;;;1.98;;
4208;SDS011;36320;48.860;2.380;2023-02-17T07:49:58;9.10;;;2.08;;
4208;SDS011;36320;48.860;2.380;2023-02-17T07:52:25;8.80;;;2.20;;
4208;SDS011;36320;48.860;2.380;2023-02-17T07:54:51;7.63;;;2.20;;
4208;SDS011;36320;48.860;2.380;2023-02-17T07:57:17;8.40;;;2.08;;
4208;SDS011;36320;48.860;2.380;2023-02-17T07:59:44;7.70;;;2.00;;
4208;SDS011;36320;48.860;2.380;2023-02-17T08:02:11;6.60;;;1.65;;
4208;SDS011;36320;48.860;2.380;2023-02-17T08:04:37;7.30;;;1.90;;
4208;SDS011;36320;48.860;2.380;2023-02-17T08:07:03;6.80;;;1.70;;
4208;SDS011;36320;48.860;2.380;2023-02-17T08:09:29;7.15;;;1.80;;
4208;SDS011;36320;48.860;2.380;2023-02-17T08:12:15;8.85;;;2.15;;
4208;SDS011;36320;48.860;2.380;2023-02-17T08:15:00;8.73;;;1.98;;
4208;SDS011;36320;48.860;2.380;2023-02-17T08:17:27;8.40;;;1.70;;
4208;SDS011;36320;48.860;2.380;2023-02-17T08:19:55;7.43;;;1.90;;
4208;SDS011;36320;48.860;2.380;2023-02-17T08:22:21;9.45;;;2.15;;
4208;SDS011;36320;48.860;2.380;2023-02-17T08:24:47;8.20;;;2.28;;
4208;SDS011;36320;48.860;2.380;2023-02-17T08:27:13;9.43;;;2.03;;
4208;SDS011;36320;48.860;2.380;2023-02-17T08:29:42;6.78;;;1.52;;
4208;SDS011;36320;48.860;2.380;2023-02-17T08:32:08;7.75;;;1.85;;
4208;SDS011;36320;48.860;2.380;2023-02-17T08:34:34;8.57;;;2.20;;
4208;SDS011;36320;48.860;2.380;2023-02-17T08:37:01;7.72;;;1.80;;
4208;SDS011;36320;48.860;2.380;2023-02-17T08:39:27;6.75;;;1.70;;
4208;SDS011;36320;48.860;2.380;2023-02-17T08:41:54;7.40;;;2.00;;
4208;SDS011;36320;48.860;2.380;2023-02-17T08:44:20;11.38;;;1.95;;
4208;SDS011;36320;48.860;2.380;2023-02-17T08:46:47;7.20;;;1.65;;
4208;SDS011;36320;48.860;2.380;2023-02-17T08:49:17;7.25;;;2.00;;
4208;SDS011;36320;48.860;2.380;2023-02-17T08:51:44;8.30;;;1.80;;
4208;SDS011;36320;48.860;2.380;2023-02-17T08:54:10;7.80;;;2.30;;
4208;SDS011;36320;48.860;2.380;2023-02-17T08:56:38;11.95;;;1.90;;
4208;SDS011;36320;48.860;2.380;2023-02-17T08:59:06;7.00;;;1.80;;
4208;SDS011;36320;48.860;2.380;2023-02-17T09:01:34;7.30;;;1.50;;
4208;SDS011;36320;48.860;2.380;2023-02-17T09:04:01;9.38;;;1.60;;
4208;SDS011;36320;48.860;2.380;2023-02-17T09:06:35;12.10;;;2.20;;
4208;SDS011;36320;48.860;2.380;2023-02-17T09:09:02;6.40;;;1.50;;
4208;SDS011;36320;48.860;2.380;2023-02-17T09:11:28;7.00;;;1.50;;
4208;SDS011;36320;48.860;2.380;2023-02-17T09:13:54;6.53;;;1.45;;
4208;SDS011;36320;48.860;2.380;2023-02-17T09:16:20;9.15;;;1.92;;
4208;SDS011;36320;48.860;2.380;2023-02-17T09:18:48;7.25;;;1.58;;
4208;SDS011;36320;48.860;2.380;2023-02-17T09:21:14;8.02;;;1.95;;
4208;SDS011;36320;48.860;2.380;2023-02-17T09:23:42;7.93;;;1.70;;
4208;SDS011;36320;48.860;2.380;2023-02-17T09:26:11;7.95;;;1.90;;
4208;SDS011;36320;48.860;2.380;2023-02-17T09:28:43;9.15;;;1.98;;
4208;SDS011;36320;48.860;2.380;2023-02-17T09:33:35;7.40;;;1.70;;
4208;SDS011;36320;48.860;2.380;2023-02-17T09:36:02;9.15;;;2.35;;
4208;SDS011;36320;48.860;2.380;2023-02-17T09:38:28;7.85;;;1.73;;
4208;SDS011;36320;48.860;2.380;2023-02-17T09:40:54;6.30;;;1.30;;
4208;SDS011;36320;48.860;2.380;2023-02-17T09:43:24;7.20;;;1.77;;
4208;SDS011;36320;48.860;2.380;2023-02-17T09:46:01;5.90;;;1.20;;
4208;SDS011;36320;48.860;2.380;2023-02-17T09:48:33;6.07;;;1.30;;
4208;SDS011;36320;48.860;2.380;2023-02-17T09:51:01;6.72;;;1.73;;
4208;SDS011;36320;48.860;2.380;2023-02-17T09:53:30;7.97;;;1.90;;
4208;SDS011;36320;48.860;2.380;2023-02-17T09:56:03;10.55;;;1.95;;
4208;SDS011;36320;48.860;2.380;2023-02-17T09:58:31;9.13;;;2.20;;
4208;SDS011;36320;48.860;2.380;2023-02-17T10:01:00;10.73;;;1.52;;
4208;SDS011;36320;48.860;2.380;2023-02-17T10:08:21;6.68;;;1.20;;
4208;SDS011;36320;48.860;2.380;2023-02-17T10:10:53;7.63;;;1.60;;
4208;SDS011;36320;48.860;2.380;2023-02-17T10:13:22;6.90;;;1.97;;
4208;SDS011;36320;48.860;2.380;2023-02-17T10:15:51;8.68;;;1.60;;
4208;SDS011;36320;48.860;2.380;2023-02-17T10:18:19;6.10;;;1.25;;
4208;SDS011;36320;48.860;2.380;2023-02-17T10:23:31;7.35;;;1.55;;
4208;SDS011;36320;48.860;2.380;2023-02-17T10:31:17;6.80;;;1.30;;
4208;SDS011;36320;48.860;2.380;2023-02-17T10:33:58;6.50;;;1.50;;
4208;SDS011;36320;48.860;2.380;2023-02-17T10:36:33;7.68;;;1.70;;
4208;SDS011;36320;48.860;2.380;2023-02-17T10:39:13;8.00;;;1.50;;
4208;SDS011;36320;48.860;2.380;2023-02-17T10:41:39;7.40;;;1.50;;
4208;SDS011;36320;48.860;2.380;2023-02-17T10:44:07;6.53;;;1.40;;
4208;SDS011;36320;48.860;2.380;2023-02-17T10:46:36;6.70;;;1.42;;
4208;SDS011;36320;48.860;2.380;2023-02-17T10:49:05;6.38;;;1.30;;
4208;SDS011;36320;48.860;2.380;2023-02-17T10:51:32;6.50;;;1.40;;
4208;SDS011;36320;48.860;2.380;2023-02-17T10:54:06;6.43;;;1.40;;
4208;SDS011;36320;48.860;2.380;2023-02-17T10:57:07;6.80;;;1.40;;
4208;SDS011;36320;48.860;2.380;2023-02-17T10:59:30;7.57;;;1.38;;
4208;SDS011;36320;48.860;2.380;2023-02-17T11:01:59;6.60;;;1.30;;
4208;SDS011;36320;48.860;2.380;2023-02-17T11:04:43;8.68;;;1.58;;
4208;SDS011;36320;48.860;2.380;2023-02-17T11:07:13;6.60;;;1.40;;
4208;SDS011;36320;48.860;2.380;2023-02-17T11:09:50;6.67;;;1.60;;
4208;SDS011;36320;48.860;2.380;2023-02-17T11:12:21;9.07;;;1.50;;
4208;SDS011;36320;48.860;2.380;2023-02-17T11:14:48;7.03;;;1.40;;
4208;SDS011;36320;48.860;2.380;2023-02-17T11:19:56;6.88;;;1.45;;
4208;SDS011;36320;48.860;2.380;2023-02-17T11:25:02;7.38;;;1.88;;
4208;SDS011;36320;48.860;2.380;2023-02-17T11:27:30;6.33;;;1.50;;
4208;SDS011;36320;48.860;2.380;2023-02-17T11:30:06;6.90;;;1.60;;
4208;SDS011;36320;48.860;2.380;2023-02-17T11:32:32;6.60;;;1.60;;
4208;SDS011;36320;48.860;2.380;2023-02-17T11:35:00;6.37;;;1.40;;
4208;SDS011;36320;48.860;2.380;2023-02-17T11:37:30;6.65;;;1.50;;
4208;SDS011;36320;48.860;2.380;2023-02-17T11:40:00;6.70;;;1.50;;
4208;SDS011;36320;48.860;2.380;2023-02-17T11:42:39;7.18;;;1.58;;
4208;SDS011;36320;48.860;2.380;2023-02-17T11:45:18;7.13;;;1.65;;
4208;SDS011;36320;48.860;2.380;2023-02-17T12:06:32;7.15;;;1.52;;
4208;SDS011;36320;48.860;2.380;2023-02-17T12:11:53;11.00;;;3.10;;
4208;SDS011;36320;48.860;2.380;2023-02-17T12:25:30;8.30;;;1.90;;
4208;SDS011;36320;48.860;2.380;2023-02-17T12:31:07;8.60;;;1.40;;
4208;SDS011;36320;48.860;2.380;2023-02-17T12:33:41;9.90;;;1.63;;
4208;SDS011;36320;48.860;2.380;2023-02-17T12:36:43;7.30;;;1.40;;
4208;SDS011;36320;48.860;2.380;2023-02-17T12:44:49;11.63;;;1.50;;
4208;SDS011;36320;48.860;2.380;2023-02-17T12:50:05;6.20;;;1.20;;
4208;SDS011;36320;48.860;2.380;2023-02-17T12:52:52;8.52;;;1.90;;
4208;SDS011;36320;48.860;2.380;2023-02-17T12:55:26;6.90;;;1.30;;
4208;SDS011;36320;48.860;2.380;2023-02-17T12:58:02;11.70;;;1.50;;
4208;SDS011;36320;48.860;2.380;2023-02-17T13:00:37;7.97;;;1.40;;
4208;SDS011;36320;48.860;2.380;2023-02-17T13:03:07;7.18;;;1.40;;
4208;SDS011;36320;48.860;2.380;2023-02-17T13:08:08;7.20;;;1.33;;
4208;SDS011;36320;48.860;2.380;2023-02-17T13:11:25;6.88;;;1.60;;
4208;SDS011;36320;48.860;2.380;2023-02-17T13:13:55;7.03;;;1.30;;
4208;SDS011;36320;48.860;2.380;2023-02-17T13:16:22;6.90;;;1.40;;
4208;SDS011;36320;48.860;2.380;2023-02-17T13:18:49;8.55;;;1.40;;
4208;SDS011;36320;48.860;2.380;2023-02-17T13:26:33;6.20;;;1.20;;
4208;SDS011;36320;48.860;2.380;2023-02-17T13:29:07;6.50;;;1.30;;
4208;SDS011;36320;48.860;2.380;2023-02-17T13:32:09;6.10;;;1.20;;
4208;SDS011;36320;48.860;2.380;2023-02-17T13:36:59;6.20;;;1.30;;
4208;SDS011;36320;48.860;2.380;2023-02-17T13:39:31;7.05;;;1.20;;
4208;SDS011;36320;48.860;2.380;2023-02-17T13:41:59;7.10;;;1.60;;
4208;SDS011;36320;48.860;2.380;2023-02-17T13:47:15;8.10;;;1.60;;
4208;SDS011;36320;48.860;2.380;2023-02-17T13:49:53;7.10;;;1.10;;
4208;SDS011;36320;48.860;2.380;2023-02-17T13:52:27;10.77;;;1.30;;
4208;SDS011;36320;48.860;2.380;2023-02-17T13:55:02;6.30;;;1.20;;
4208;SDS011;36320;48.860;2.380;2023-02-17T13:57:33;8.45;;;1.33;;
4208;SDS011;36320;48.860;2.380;2023-02-17T14:00:04;7.05;;;1.48;;
4208;SDS011;36320;48.860;2.380;2023-02-17T14:02:53;7.55;;;1.60;;
4208;SDS011;36320;48.860;2.380;2023-02-17T14:05:45;6.10;;;1.10;;
4208;SDS011;36320;48.860;2.380;2023-02-17T14:10:49;7.20;;;1.60;;
4208;SDS011;36320;48.860;2.380;2023-02-17T14:13:15;7.07;;;1.40;;
4208;SDS011;36320;48.860;2.380;2023-02-17T14:15:48;7.60;;;1.20;;
4208;SDS011;36320;48.860;2.380;2023-02-17T14:18:33;7.68;;;2.08;;
4208;SDS011;36320;48.860;2.380;2023-02-17T14:21:04;7.25;;;1.70;;
4208;SDS011;36320;48.860;2.380;2023-02-17T14:26:37;6.90;;;1.48;;
4208;SDS011;36320;48.860;2.380;2023-02-17T14:29:08;6.70;;;1.30;;
4208;SDS011;36320;48.860;2.380;2023-02-17T14:31:38;6.40;;;1.10;;
4208;SDS011;36320;48.860;2.380;2023-02-17T14:34:05;11.30;;;1.40;;
4208;SDS011;36320;48.860;2.380;2023-02-17T14:36:37;7.90;;;1.80;;
4208;SDS011;36320;48.860;2.380;2023-02-17T14:39:05;7.50;;;1.60;;
4208;SDS011;36320;48.860;2.380;2023-02-17T14:41:33;7.45;;;1.50;;
4208;SDS011;36320;48.860;2.380;2023-02-17T14:44:00;7.53;;;1.40;;
4208;SDS011;36320;48.860;2.380;2023-02-17T14:46:29;9.37;;;1.53;;
4208;SDS011;36320;48.860;2.380;2023-02-17T14:48:55;6.90;;;1.40;;
4208;SDS011;36320;48.860;2.380;2023-02-17T14:51:21;6.30;;;1.20;;
4208;SDS011;36320;48.860;2.380;2023-02-17T14:53:49;8.40;;;1.50;;
4208;SDS011;36320;48.860;2.380;2023-02-17T14:59:16;8.55;;;1.40;;
4208;SDS011;36320;48.860;2.380;2023-02-17T15:01:42;6.40;;;1.30;;
4208;SDS011;36320;48.860;2.380;2023-02-17T15:04:07;6.55;;;1.35;;
4208;SDS011;36320;48.860;2.380;2023-02-17T15:06:43;6.90;;;1.50;;
4208;SDS011;36320;48.860;2.380;2023-02-17T15:09:15;6.72;;;1.38;;
4208;SDS011;36320;48.860;2.380;2023-02-17T15:11:45;6.60;;;1.30;;
4208;SDS011;36320;48.860;2.380;2023-02-17T15:14:15;7.43;;;1.67;;
4208;SDS011;36320;48.860;2.380;2023-02-17T15:16:43;6.72;;;1.20;;
4208;SDS011;36320;48.860;2.380;2023-02-17T15:19:11;5.90;;;1.10;;
4208;SDS011;36320;48.860;2.380;2023-02-17T15:21:39;6.75;;;1.50;;
4208;SDS011;36320;48.860;2.380;2023-02-17T15:24:15;8.83;;;1.80;;
4208;SDS011;36320;48.860;2.380;2023-02-17T15:26:54;6.63;;;1.40;;
4208;SDS011;36320;48.860;2.380;2023-02-17T15:29:21;6.50;;;1.30;;
4208;SDS011;36320;48.860;2.380;2023-02-17T15:31:48;6.45;;;1.15;;
4208;SDS011;36320;48.860;2.380;2023-02-17T15:34:19;7.20;;;1.80;;
4208;SDS011;36320;48.860;2.380;2023-02-17T15:36:47;6.50;;;1.50;;
4208;SDS011;36320;48.860;2.380;2023-02-17T15:39:14;7.80;;;1.80;;
4208;SDS011;36320;48.860;2.380;2023-02-17T15:41:42;9.40;;;1.80;;
4208;SDS011;36320;48.860;2.380;2023-02-17T15:44:16;7.80;;;1.80;;
4208;SDS011;36320;48.860;2.380;2023-02-17T15:46:45;6.95;;;1.50;;
4208;SDS011;36320;48.860;2.380;2023-02-17T15:49:13;6.88;;;1.50;;
4208;SDS011;36320;48.860;2.380;2023-02-17T15:51:42;7.10;;;1.50;;
4208;SDS011;36320;48.860;2.380;2023-02-17T15:54:08;7.65;;;1.85;;
4208;SDS011;36320;48.860;2.380;2023-02-17T15:56:40;6.20;;;1.20;;
4208;SDS011;36320;48.860;2.380;2023-02-17T15:59:11;8.70;;;1.52;;
4208;SDS011;36320;48.860;2.380;2023-02-17T16:01:47;7.03;;;1.75;;
4208;SDS011;36320;48.860;2.380;2023-02-17T16:04:16;6.97;;;1.30;;
4208;SDS011;36320;48.860;2.380;2023-02-17T16:06:42;8.40;;;1.40;;
4208;SDS011;36320;48.860;2.380;2023-02-17T16:09:09;7.22;;;1.70;;
4208;SDS011;36320;48.860;2.380;2023-02-17T16:11:36;6.50;;;1.10;;
4208;SDS011;36320;48.860;2.380;2023-02-17T16:14:15;6.40;;;1.30;;
4208;SDS011;36320;48.860;2.380;2023-02-17T16:17:00;6.63;;;1.50;;
4208;SDS011;36320;48.860;2.380;2023-02-17T16:19:28;6.60;;;1.30;;
4208;SDS011;36320;48.860;2.380;2023-02-17T16:21:55;6.20;;;1.10;;
4208;SDS011;36320;48.860;2.380;2023-02-17T16:24:22;7.10;;;1.70;;
4208;SDS011;36320;48.860;2.380;2023-02-17T16:26:47;6.70;;;1.40;;
4208;SDS011;36320;48.860;2.380;2023-02-17T16:29:17;7.20;;;1.20;;
4208;SDS011;36320;48.860;2.380;2023-02-17T16:31:46;7.20;;;1.40;;
4208;SDS011;36320;48.860;2.380;2023-02-17T16:34:15;8.60;;;2.10;;
4208;SDS011;36320;48.860;2.380;2023-02-17T16:36:48;7.80;;;1.40;;
4208;SDS011;36320;48.860;2.380;2023-02-17T16:39:16;20.98;;;1.55;;
4208;SDS011;36320;48.860;2.380;2023-02-17T16:41:44;7.57;;;1.50;;
4208;SDS011;36320;48.860;2.380;2023-02-17T16:44:16;7.45;;;1.63;;
4208;SDS011;36320;48.860;2.380;2023-02-17T16:46:45;8.10;;;1.63;;
4208;SDS011;36320;48.860;2.380;2023-02-17T16:51:58;5.87;;;1.00;;
4208;SDS011;36320;48.860;2.380;2023-02-17T16:54:24;6.30;;;1.10;;
4208;SDS011;36320;48.860;2.380;2023-02-17T16:56:52;6.38;;;1.20;;
4208;SDS011;36320;48.860;2.380;2023-02-17T16:59:20;7.00;;;1.10;;
4208;SDS011;36320;48.860;2.380;2023-02-17T17:01:49;9.50;;;1.40;;
4208;SDS011;36320;48.860;2.380;2023-02-17T17:04:19;7.10;;;1.30;;
4208;SDS011;36320;48.860;2.380;2023-02-17T17:06:50;6.45;;;1.20;;
4208;SDS011;36320;48.860;2.380;2023-02-17T17:09:18;6.88;;;1.20;;
4208;SDS011;36320;48.860;2.380;2023-02-17T17:11:47;6.00;;;1.00;;
4208;SDS011;36320;48.860;2.380;2023-02-17T17:14:14;6.97;;;1.38;;